Time;durP1;ratioP1;P1;durP2;ratioP2;P2;SDS_P1;SDS_P2;PMS_P1;PMS_P2;Temp;Humidity;BMP_temperature;BMP_pressure;BME280_temperature;BME280_humidity;BME280_pressure;Samples;Min_cycle;Max_cycle;Signal;HPM_P1;HPM_P2
2022/01/31 00:02:16;;;;;;;19.53;2.17;;;;;;;7.36;98.95;98218.31;5078453;28;20593;-69
2022/01/31 00:04:43;;;;;;;37.97;3.37;;;;;;;7.32;100.00;98211.84;5078317;28;20606;-70
2022/01/31 00:07:11;;;;;;;18.03;2.23;;;;;;;7.34;97.59;98215.06;5081098;28;20633;-70
2022/01/31 00:09:38;;;;;;;20.80;1.90;;;;;;;7.36;97.96;98222.81;5081833;28;20609;-69
2022/01/31 00:12:09;;;;;;;12.30;2.23;;;;;;;7.35;98.20;98208.72;5079647;28;20605;-69
2022/01/31 00:14:39;;;;;;;27.73;2.37;;;;;;;7.36;97.83;98205.03;5078356;28;20593;-69
2022/01/31 00:17:07;;;;;;;17.80;2.50;;;;;;;7.43;98.05;98211.00;5080124;28;20990;-69
2022/01/31 00:19:36;;;;;;;15.57;2.07;;;;;;;7.42;98.73;98216.56;5081302;28;20637;-69
2022/01/31 00:22:03;;;;;;;26.10;2.90;;;;;;;7.46;100.00;98210.53;5079652;28;20597;-69
2022/01/31 00:24:30;;;;;;;20.70;2.40;;;;;;;7.45;100.00;98193.00;5077806;28;20590;-69
2022/01/31 00:26:57;;;;;;;18.20;2.33;;;;;;;7.48;100.00;98189.84;5078672;28;20635;-69
2022/01/31 00:29:24;;;;;;;25.23;2.27;;;;;;;7.44;99.83;98188.72;5081317;28;20608;-69
2022/01/31 00:31:51;;;;;;;31.47;4.73;;;;;;;7.42;100.00;98180.16;5081165;28;20585;-69
2022/01/31 00:34:18;;;;;;;14.83;2.50;;;;;;;7.38;100.00;98164.94;5077985;28;20598;-69
2022/01/31 00:36:46;;;;;;;48.67;4.30;;;;;;;7.40;99.73;98160.16;5077862;28;20630;-70
2022/01/31 00:39:13;;;;;;;24.43;2.00;;;;;;;7.34;100.00;98153.16;5081330;28;20649;-69
2022/01/31 00:41:40;;;;;;;23.50;2.60;;;;;;;7.31;100.00;98150.97;5081590;28;20608;-70
2022/01/31 00:44:17;;;;;;;11.83;2.43;;;;;;;7.30;100.00;98152.84;5079098;28;21133;-70
2022/01/31 00:46:50;;;;;;;61.23;4.23;;;;;;;7.24;98.72;98135.16;5077849;28;20598;-69
2022/01/31 00:49:27;;;;;;;33.10;2.97;;;;;;;7.25;100.00;98135.97;5069758;28;20749;-69
2022/01/31 00:51:55;;;;;;;21.17;2.47;;;;;;;7.24;100.00;98116.56;5078149;28;20610;-70
2022/01/31 00:54:22;;;;;;;12.73;1.97;;;;;;;7.25;100.00;98126.16;5084765;28;20618;-70
2022/01/31 00:56:49;;;;;;;30.87;2.97;;;;;;;7.24;100.00;98113.91;5077939;28;20604;-70
2022/01/31 00:59:19;;;;;;;16.60;1.93;;;;;;;7.15;98.95;98104.69;5069962;28;20736;-70
2022/01/31 01:01:47;;;;;;;27.23;2.27;;;;;;;7.19;100.00;98105.03;5077891;28;20709;-69
2022/01/31 01:04:14;;;;;;;14.33;2.70;;;;;;;7.21;100.00;98109.06;5081362;28;20623;-70
2022/01/31 01:06:42;;;;;;;37.57;3.33;;;;;;;7.24;100.00;98108.59;5081128;28;20667;-70
2022/01/31 01:09:11;;;;;;;13.23;2.30;;;;;;;7.22;100.00;98109.88;5078853;28;20590;-71
2022/01/31 01:11:38;;;;;;;20.63;2.90;;;;;;;7.19;100.00;98084.59;5078098;28;20626;-70
2022/01/31 01:14:04;;;;;;;22.53;2.77;;;;;;;7.16;100.00;98078.94;5080735;28;20598;-70
2022/01/31 01:16:32;;;;;;;31.93;3.20;;;;;;;7.17;97.95;98060.13;5084884;28;20597;-70
2022/01/31 01:19:12;;;;;;;16.47;2.10;;;;;;;7.15;99.97;98077.34;5083364;28;20672;-71
2022/01/31 01:21:41;;;;;;;53.93;3.53;;;;;;;7.05;100.00;98081.44;5080188;28;21054;-69
2022/01/31 01:24:35;;;;;;;29.33;2.33;;;;;;;7.03;100.00;98088.00;5074563;28;20611;-70
2022/01/31 01:27:03;;;;;;;13.40;1.93;;;;;;;7.08;100.00;98082.81;5083022;28;20686;-70
2022/01/31 01:29:32;;;;;;;26.63;2.97;;;;;;;7.14;100.00;98075.75;5084574;28;20608;-70
2022/01/31 01:31:59;;;;;;;38.53;3.10;;;;;;;7.18;100.00;98068.91;5083336;28;21120;-71
2022/01/31 01:34:32;;;;;;;16.40;2.50;;;;;;;7.21;100.00;98063.13;5080961;28;20609;-71
2022/01/31 01:37:00;;;;;;;14.33;1.93;;;;;;;7.19;100.00;98063.34;5082243;28;20674;-70
2022/01/31 01:39:32;;;;;;;8.23;1.40;;;;;;;7.15;100.00;98062.22;5083190;28;20658;-70
2022/01/31 01:42:05;;;;;;;16.33;1.80;;;;;;;7.16;100.00;98053.19;5082716;28;20612;-70
2022/01/31 01:44:46;;;;;;;28.03;2.23;;;;;;;7.17;100.00;98038.88;5080667;28;20681;-70
2022/01/31 01:47:17;;;;;;;15.27;1.83;;;;;;;7.16;100.00;98026.66;5084006;28;20601;-70
2022/01/31 01:49:44;;;;;;;36.07;3.70;;;;;;;7.16;100.00;98024.00;5083936;28;20629;-70
2022/01/31 01:52:11;;;;;;;15.53;1.73;;;;;;;7.17;100.00;98008.88;5081206;28;20606;-69
2022/01/31 01:54:39;;;;;;;15.97;1.63;;;;;;;7.20;100.00;98003.06;5080598;28;20638;-70
2022/01/31 01:57:07;;;;;;;30.70;2.47;;;;;;;6.99;100.00;97988.63;5082965;28;20606;-69
2022/01/31 01:59:36;;;;;;;52.07;3.20;;;;;;;6.98;100.00;97979.06;5083975;28;20636;-69
2022/01/31 02:02:09;;;;;;;19.80;1.93;;;;;;;7.06;100.00;97978.66;5082016;28;20637;-69
2022/01/31 02:04:36;;;;;;;20.17;2.47;;;;;;;7.09;100.00;97975.53;5080551;28;20606;-69
2022/01/31 02:07:12;;;;;;;29.57;2.97;;;;;;;7.14;100.00;97970.31;5082005;28;20602;-69
2022/01/31 02:09:44;;;;;;;18.57;2.40;;;;;;;7.14;100.00;97954.38;5083621;28;20674;-70
2022/01/31 02:12:15;;;;;;;20.00;2.07;;;;;;;7.10;100.00;97931.19;5081106;28;20770;-71
2022/01/31 02:14:44;;;;;;;20.10;2.40;;;;;;;7.03;100.00;97924.19;5080049;28;20602;-70
2022/01/31 02:17:11;;;;;;;13.80;1.83;;;;;;;7.00;100.00;97915.88;5083009;28;20627;-70
2022/01/31 02:19:38;;;;;;;43.97;3.80;;;;;;;7.05;100.00;97910.69;5083690;28;20644;-69
2022/01/31 02:22:07;;;;;;;13.33;1.90;;;;;;;7.00;100.00;97894.66;5081519;28;20593;-70
2022/01/31 02:24:33;;;;;;;16.77;2.27;;;;;;;7.02;100.00;97879.31;5079974;28;20646;-73
2022/01/31 02:27:03;;;;;;;16.80;1.87;;;;;;;7.08;100.00;97870.38;5080489;28;20614;-70
2022/01/31 02:29:30;;;;;;;37.13;3.97;;;;;;;7.06;100.00;97872.44;5082537;28;21213;-70
2022/01/31 02:31:57;;;;;;;20.40;2.70;;;;;;;7.09;100.00;97871.19;5082224;28;20621;-70
2022/01/31 02:34:24;;;;;;;14.83;1.43;;;;;;;7.13;100.00;97870.44;5079747;28;20638;-70
2022/01/31 02:36:53;;;;;;;19.67;3.07;;;;;;;7.10;100.00;97855.00;5079711;28;20666;-69
2022/01/31 02:39:22;;;;;;;32.10;2.70;;;;;;;7.17;100.00;97842.38;5082991;28;20597;-70
2022/01/31 02:41:49;;;;;;;37.13;3.80;;;;;;;7.15;100.00;97833.03;5082837;28;20669;-70
2022/01/31 02:44:17;;;;;;;21.00;2.03;;;;;;;7.13;100.00;97817.31;5071762;28;20598;-71
2022/01/31 02:46:49;;;;;;;18.27;1.53;;;;;;;7.05;100.00;97817.75;5079887;28;20618;-71
2022/01/31 02:49:23;;;;;;;28.70;2.23;;;;;;;7.06;100.00;97809.53;5070804;28;20644;-70
2022/01/31 02:51:53;;;;;;;17.53;1.93;;;;;;;6.86;100.00;97797.78;5079816;28;20606;-70
2022/01/31 02:54:22;;;;;;;29.57;3.77;;;;;;;6.91;100.00;97790.72;5072818;28;20648;-70
2022/01/31 02:56:49;;;;;;;15.23;1.80;;;;;;;6.97;100.00;97775.66;5079215;28;20579;-70
2022/01/31 02:59:16;;;;;;;28.17;2.47;;;;;;;6.93;100.00;97775.34;5071302;28;20626;-70
2022/01/31 03:01:45;;;;;;;27.97;3.33;;;;;;;6.64;100.00;97751.78;5079332;28;20617;-70
2022/01/31 03:04:12;;;;;;;14.83;2.00;;;;;;;6.83;100.00;97753.16;5082457;28;20694;-70
2022/01/31 03:06:42;;;;;;;32.23;3.07;;;;;;;6.65;100.00;97764.03;5082833;28;20613;-70
2022/01/31 03:09:12;;;;;;;40.80;3.20;;;;;;;6.44;100.00;97765.53;5080230;28;20605;-70
2022/01/31 03:11:41;;;;;;;25.30;2.40;;;;;;;6.42;100.00;97744.56;5079352;28;20625;-70
2022/01/31 03:14:08;;;;;;;28.93;3.17;;;;;;;6.40;100.00;97738.69;5081580;28;20610;-69
2022/01/31 03:16:40;;;;;;;19.93;2.80;;;;;;;6.36;100.00;97737.56;5082567;28;20608;-70
2022/01/31 03:19:07;;;;;;;45.30;3.53;;;;;;;6.43;100.00;97718.84;5080526;28;20602;-70
2022/01/31 03:24:24;;;;;;;26.83;2.90;;;;;;;6.44;100.00;97694.72;5066565;28;20622;-73
2022/01/31 03:26:53;;;;;;;19.50;2.97;;;;;;;6.33;100.00;97682.34;5078919;28;20599;-72
2022/01/31 03:29:20;;;;;;;22.27;2.20;;;;;;;6.50;100.00;97691.09;5082490;28;20606;-70
2022/01/31 03:31:48;;;;;;;35.77;2.93;;;;;;;6.65;100.00;97700.34;5082319;28;20640;-69
2022/01/31 03:34:18;;;;;;;11.07;1.93;;;;;;;6.64;100.00;97698.72;5079296;28;20708;-72
2022/01/31 03:36:54;;;;;;;30.27;2.43;;;;;;;6.58;100.00;97689.09;5078268;28;20606;-70
2022/01/31 03:39:28;;;;;;;57.40;3.93;;;;;;;6.66;100.00;97667.44;5072357;28;20586;-70
2022/01/31 03:42:00;;;;;;;13.80;2.17;;;;;;;6.39;100.00;97649.56;5079478;28;20605;-70
2022/01/31 03:44:29;;;;;;;30.33;3.17;;;;;;;6.30;100.00;97627.13;5082385;28;20609;-69
2022/01/31 03:46:56;;;;;;;19.10;2.27;;;;;;;6.33;100.00;97639.09;5081134;28;20605;-69
2022/01/31 03:49:24;;;;;;;23.97;2.40;;;;;;;6.46;100.00;97652.84;5078611;28;20626;-69
2022/01/31 03:51:51;;;;;;;27.50;2.77;;;;;;;6.46;100.00;97638.78;5078197;28;20633;-69
2022/01/31 03:54:18;;;;;;;8.33;1.60;;;;;;;6.38;100.00;97628.56;5085375;28;20614;-69
2022/01/31 03:56:45;;;;;;;18.87;2.83;;;;;;;6.23;100.00;97623.03;5078205;28;20587;-69
2022/01/31 03:59:13;;;;;;;27.63;2.77;;;;;;;6.22;100.00;97608.97;5081063;28;20624;-70
2022/01/31 04:01:44;;;;;;;16.93;2.13;;;;;;;6.33;100.00;97602.78;5081436;28;20645;-69
2022/01/31 04:04:12;;;;;;;6.63;1.80;;;;;;;6.12;100.00;97598.22;5079144;28;20599;-69
2022/01/31 04:06:45;;;;;;;37.50;3.17;;;;;;;5.94;100.00;97580.69;5078239;28;20620;-69
2022/01/31 04:09:16;;;;;;;43.97;4.40;;;;;;;5.92;100.00;97568.75;5081204;28;20636;-69
2022/01/31 04:11:43;;;;;;;26.57;2.80;;;;;;;5.93;100.00;97588.91;5081509;28;20624;-69
2022/01/31 04:14:14;;;;;;;19.27;3.30;;;;;;;5.89;100.00;97585.94;5078894;28;20633;-70
2022/01/31 04:16:41;;;;;;;29.53;2.87;;;;;;;5.90;100.00;97587.53;5078107;28;20602;-69
2022/01/31 04:19:11;;;;;;;56.33;3.93;;;;;;;5.94;100.00;97571.97;5080839;28;20638;-69
2022/01/31 04:21:39;;;;;;;40.87;3.53;;;;;;;5.93;100.00;97591.56;5081896;28;20688;-70
2022/01/31 04:24:22;;;;;;;29.30;3.13;;;;;;;5.71;100.00;97594.09;5079932;28;20617;-69
2022/01/31 04:27:05;;;;;;;23.80;2.97;;;;;;;5.59;100.00;97600.47;5075654;28;20614;-69
2022/01/31 04:29:37;;;;;;;16.97;3.10;;;;;;;5.69;100.00;97590.88;5081831;28;20613;-69
2022/01/31 04:32:05;;;;;;;15.00;2.60;;;;;;;5.76;100.00;97577.44;5079792;28;21414;-71
2022/01/31 04:34:32;;;;;;;36.43;4.00;;;;;;;5.87;100.00;97560.72;5077357;28;20633;-69
2022/01/31 04:37:00;;;;;;;38.60;2.87;;;;;;;6.00;100.00;97559.59;5079350;28;20599;-69
2022/01/31 04:39:28;;;;;;;28.07;3.07;;;;;;;6.09;100.00;97540.38;5081478;28;20610;-69
2022/01/31 04:41:56;;;;;;;16.17;2.83;;;;;;;6.03;100.00;97533.41;5080894;28;20649;-69
2022/01/31 04:44:24;;;;;;;13.83;2.13;;;;;;;6.17;100.00;97534.66;5078270;28;20598;-69
2022/01/31 04:47:02;;;;;;;15.73;3.17;;;;;;;6.23;100.00;97544.28;5078024;28;20595;-70
2022/01/31 04:49:29;;;;;;;15.33;3.60;;;;;;;6.28;100.00;97554.19;5083271;28;20625;-71
2022/01/31 04:55:12;;;;;;;37.13;4.40;;;;;;;6.14;100.00;97524.53;5084709;28;20636;-72
2022/01/31 04:57:48;;;;;;;57.60;4.70;;;;;;;6.34;100.00;97538.09;5085359;28;20605;-72
2022/01/31 05:00:35;;;;;;;13.30;3.57;;;;;;;6.45;100.00;97534.53;5081681;28;20725;-71
2022/01/31 05:03:09;;;;;;;30.27;3.50;;;;;;;6.41;100.00;97536.06;5083057;28;20601;-71
2022/01/31 05:05:43;;;;;;;21.27;4.47;;;;;;;6.32;100.00;97528.75;5085037;28;20598;-71
2022/01/31 05:08:28;;;;;;;20.77;4.07;;;;;;;6.23;100.00;97533.69;5081962;28;20610;-72
2022/01/31 05:11:17;;;;;;;26.27;4.03;;;;;;;6.29;100.00;97526.59;5079404;28;20616;-72
2022/01/31 05:13:57;;;;;;;22.13;4.07;;;;;;;6.32;100.00;97508.34;5082638;28;20717;-72
2022/01/31 05:16:46;;;;;;;50.87;4.63;;;;;;;6.09;100.00;97490.03;5076012;28;20618;-72
2022/01/31 05:19:35;;;;;;;24.63;3.57;;;;;;;6.34;100.00;97477.09;5039341;28;20647;-72
2022/01/31 05:22:18;;;;;;;34.47;4.43;;;;;;;6.36;100.00;97472.34;5083773;28;20742;-71
2022/01/31 05:24:54;;;;;;;21.30;3.50;;;;;;;6.41;100.00;97460.97;5083544;28;20675;-72
2022/01/31 05:27:21;;;;;;;22.03;3.57;;;;;;;6.38;100.00;97462.28;5084762;28;20628;-71
2022/01/31 05:29:56;;;;;;;32.37;4.07;;;;;;;6.39;100.00;97463.09;5084496;28;20619;-72
2022/01/31 05:32:49;;;;;;;21.10;3.57;;;;;;;6.29;100.00;97452.34;5069356;28;20658;-71
2022/01/31 05:35:52;;;;;;;;;;;;;;;;;;;;;
2022/01/31 05:41:22;;;;;;;30.40;3.53;;;;;;;6.29;100.00;97442.53;5080034;28;20697;-72
2022/01/31 05:47:29;;;;;;;17.57;3.60;;;;;;;6.11;100.00;97428.78;5018585;28;20703;-72
2022/01/31 05:49:59;;;;;;;12.53;2.60;;;;;;;6.29;100.00;97417.88;5019133;28;20661;-72
2022/01/31 05:52:45;;;;;;;42.57;5.03;;;;;;;6.22;100.00;97409.34;5019177;28;20725;-72
2022/01/31 05:55:51;;;;;;;;;;;;;;;;;;;;;
2022/01/31 06:02:28;;;;;;;11.83;3.10;;;;;;;6.11;100.00;97354.56;4990706;28;20800;-72
2022/01/31 06:05:00;;;;;;;24.87;2.57;;;;;;;6.03;100.00;97358.47;4983086;28;20644;-72
2022/01/31 06:08:17;;;;;;;17.07;2.83;;;;;;;5.83;100.00;97348.38;5001780;28;20722;-71
2022/01/31 06:14:59;;;;;;;30.57;3.63;;;;;;;5.67;100.00;97327.22;4964987;28;20661;-73
2022/01/31 06:17:47;;;;;;;21.87;3.87;;;;;;;5.71;100.00;97320.41;5040641;28;20627;-71
2022/01/31 06:20:55;;;;;;;42.90;4.80;;;;;;;5.56;100.00;97310.44;4998572;28;20612;-71
2022/01/31 06:23:24;;;;;;;12.93;2.20;;;;;;;5.52;100.00;97313.78;5058840;28;20654;-71
2022/01/31 06:25:51;;;;;;;55.77;4.93;;;;;;;5.50;100.00;97305.31;5082229;28;20601;-72
2022/01/31 06:28:18;;;;;;;13.47;1.93;;;;;;;5.48;100.00;97299.47;5080045;28;21388;-71
2022/01/31 06:30:54;;;;;;;25.03;3.50;;;;;;;5.30;100.00;97300.53;5080152;28;21216;-71
2022/01/31 06:33:22;;;;;;;38.67;3.73;;;;;;;5.44;100.00;97285.91;5083151;28;20613;-72
2022/01/31 06:35:49;;;;;;;36.90;4.07;;;;;;;5.57;100.00;97301.41;5083215;28;20609;-71
2022/01/31 06:38:16;;;;;;;24.17;3.27;;;;;;;5.38;100.00;97300.91;5079838;28;20690;-71
2022/01/31 06:40:45;;;;;;;29.13;4.00;;;;;;;5.30;100.00;97279.34;5079516;28;20694;-71
2022/01/31 06:43:15;;;;;;;47.00;4.10;;;;;;;5.34;100.00;97270.69;5082313;28;20684;-72
2022/01/31 06:45:42;;;;;;;29.13;3.43;;;;;;;5.27;100.00;97246.22;5082832;28;20655;-73
2022/01/31 06:48:09;;;;;;;24.83;4.37;;;;;;;5.41;100.00;97242.19;5079610;28;20609;-72
2022/01/31 06:50:41;;;;;;;58.07;5.30;;;;;;;5.36;100.00;97220.94;5079356;28;20710;-72
2022/01/31 06:53:08;;;;;;;53.93;4.03;;;;;;;5.58;100.00;97220.13;5081483;28;20618;-71
2022/01/31 06:55:37;;;;;;;32.13;2.80;;;;;;;5.66;100.00;97209.09;5078957;28;20651;-71
2022/01/31 06:58:05;;;;;;;36.77;3.70;;;;;;;5.47;100.00;97205.16;5081156;28;20601;-72
2022/01/31 07:00:33;;;;;;;28.63;2.57;;;;;;;5.54;100.00;97190.66;5082842;28;20674;-73
2022/01/31 07:03:03;;;;;;;14.93;2.67;;;;;;;5.42;100.00;97188.16;5081568;28;20614;-71
2022/01/31 07:05:30;;;;;;;15.60;2.83;;;;;;;5.44;100.00;97175.50;5079279;28;20673;-72
2022/01/31 07:07:57;;;;;;;26.30;3.13;;;;;;;5.53;100.00;97178.50;5079950;28;20652;-71
2022/01/31 07:10:26;;;;;;;16.07;2.80;;;;;;;5.71;100.00;97164.91;5082844;28;20621;-71
2022/01/31 07:12:56;;;;;;;34.37;3.63;;;;;;;5.59;100.00;97161.63;5081489;28;20613;-71
2022/01/31 07:15:24;;;;;;;13.50;2.90;;;;;;;5.66;100.00;97153.47;5079427;28;20611;-71
2022/01/31 07:17:55;;;;;;;25.27;3.33;;;;;;;5.67;100.00;97145.25;5079329;28;20649;-71
2022/01/31 07:20:33;;;;;;;18.93;3.00;;;;;;;5.66;100.00;97140.22;5082826;28;21172;-72
2022/01/31 07:23:07;;;;;;;20.47;3.50;;;;;;;5.79;100.00;97130.00;5081601;28;20601;-72
2022/01/31 07:25:35;;;;;;;37.60;4.90;;;;;;;5.73;100.00;97136.31;5082557;28;20605;-71
2022/01/31 07:28:04;;;;;;;14.30;2.73;;;;;;;5.86;100.00;97137.78;5080758;28;20610;-71
2022/01/31 07:30:32;;;;;;;27.27;3.30;;;;;;;5.67;100.00;97139.16;5079070;28;20613;-71
2022/01/31 07:33:00;;;;;;;9.77;2.10;;;;;;;5.66;100.00;97130.44;5079930;28;20686;-72
2022/01/31 07:35:27;;;;;;;25.50;3.93;;;;;;;5.80;100.00;97136.13;5082377;28;20609;-72
2022/01/31 07:37:54;;;;;;;26.27;3.73;;;;;;;5.87;100.00;97148.16;5081884;28;20594;-75
2022/01/31 07:40:21;;;;;;;16.13;3.60;;;;;;;5.86;100.00;97151.03;5078710;28;20598;-71
2022/01/31 07:42:48;;;;;;;25.67;2.80;;;;;;;5.65;100.00;97135.97;5078959;28;20693;-71
2022/01/31 07:45:17;;;;;;;34.40;3.57;;;;;;;5.54;100.00;97144.88;5082326;28;20610;-71
2022/01/31 07:47:45;;;;;;;66.40;6.20;;;;;;;5.58;100.00;97138.00;5082382;28;20681;-71
2022/01/31 07:50:13;;;;;;;10.87;2.70;;;;;;;5.52;100.00;97123.94;5079249;28;20621;-73
2022/01/31 07:52:41;;;;;;;26.63;3.30;;;;;;;5.42;100.00;97127.28;5078616;28;20622;-72
2022/01/31 07:55:10;;;;;;;8.33;2.33;;;;;;;5.51;100.00;97126.84;5080760;28;20614;-72
2022/01/31 07:57:38;;;;;;;9.23;2.17;;;;;;;5.46;100.00;97122.28;5081897;28;20610;-71
2022/01/31 08:00:07;;;;;;;11.60;2.60;;;;;;;5.55;100.00;97125.28;5080181;28;20636;-71
2022/01/31 08:02:34;;;;;;;25.77;3.27;;;;;;;5.60;100.00;97128.00;5078446;28;20770;-71
2022/01/31 08:05:02;;;;;;;39.57;4.97;;;;;;;5.71;100.00;97113.78;5079884;28;20607;-72
2022/01/31 08:07:29;;;;;;;11.80;2.67;;;;;;;5.68;100.00;97111.63;5082133;28;20605;-71
2022/01/31 08:10:01;;;;;;;37.33;4.13;;;;;;;5.76;100.00;97104.03;5080993;28;20616;-71
2022/01/31 08:12:28;;;;;;;19.73;3.07;;;;;;;5.82;100.00;97100.38;5078808;28;20611;-71
2022/01/31 08:15:01;;;;;;;16.37;3.03;;;;;;;5.60;100.00;97101.50;5078755;28;20623;-71
2022/01/31 08:17:28;;;;;;;22.93;2.87;;;;;;;5.51;100.00;97100.34;5082125;28;20609;-72
2022/01/31 08:19:55;;;;;;;25.50;4.00;;;;;;;5.60;100.00;97093.56;5081460;28;20598;-71
2022/01/31 08:22:23;;;;;;;9.27;3.00;;;;;;;5.56;100.00;97081.84;5078240;28;20727;-76
2022/01/31 08:24:50;;;;;;;11.23;2.87;;;;;;;5.68;100.00;97079.84;5082417;28;20598;-71
2022/01/31 08:27:18;;;;;;;83.07;5.50;;;;;;;5.72;100.00;97065.88;5074370;28;20616;-72
2022/01/31 08:29:46;;;;;;;16.27;3.20;;;;;;;5.79;100.00;97063.78;5082540;28;20652;-72
2022/01/31 08:32:18;;;;;;;8.73;2.60;;;;;;;5.73;100.00;97062.13;5085309;28;20585;-72
2022/01/31 08:37:31;;;;;;;6.63;2.77;;;;;;;5.74;100.00;97053.16;5075453;28;20594;-71
2022/01/31 08:39:58;;;;;;;11.13;2.13;;;;;;;5.62;100.00;97054.38;5082910;28;20602;-71
2022/01/31 08:42:28;;;;;;;24.00;3.83;;;;;;;5.65;100.00;97040.63;5085396;28;20636;-72
2022/01/31 08:44:55;;;;;;;10.00;2.87;;;;;;;5.74;100.00;97047.06;5084749;28;20627;-71
2022/01/31 08:47:22;;;;;;;36.97;4.10;;;;;;;5.71;100.00;97031.66;5081951;28;20666;-74
2022/01/31 08:49:49;;;;;;;22.90;3.00;;;;;;;5.60;100.00;97033.41;5081666;28;20617;-72
2022/01/31 08:52:16;;;;;;;25.57;3.00;;;;;;;5.55;100.00;97022.78;5085617;28;20616;-71
2022/01/31 08:54:44;;;;;;;18.53;3.80;;;;;;;5.50;100.00;97027.25;5085420;28;20615;-71
2022/01/31 08:57:12;;;;;;;35.90;3.47;;;;;;;5.39;100.00;97019.22;5084837;28;20627;-71
2022/01/31 08:59:44;;;;;;;20.93;2.47;;;;;;;5.57;100.00;97017.25;5085342;28;20605;-71
2022/01/31 09:02:14;;;;;;;10.90;2.83;;;;;;;5.77;100.00;97012.09;5082408;28;21491;-72
2022/01/31 09:04:48;;;;;;;25.50;3.43;;;;;;;5.77;100.00;96993.56;5080976;28;20618;-71
2022/01/31 09:07:17;;;;;;;52.43;4.37;;;;;;;5.71;100.00;96989.28;5085247;28;20605;-72
2022/01/31 09:09:52;;;;;;;22.83;3.07;;;;;;;5.56;100.00;96997.13;5084761;28;20606;-71
2022/01/31 09:12:19;;;;;;;25.73;2.70;;;;;;;5.49;100.00;96985.94;5073657;28;20683;-72
2022/01/31 09:14:47;;;;;;;15.63;2.70;;;;;;;5.51;100.00;96974.03;5081367;28;20614;-72
2022/01/31 09:17:14;;;;;;;29.10;3.30;;;;;;;5.55;100.00;96979.63;5084708;28;20652;-71
2022/01/31 09:19:41;;;;;;;20.53;3.27;;;;;;;5.47;100.00;96988.03;5085161;28;20681;-71
2022/01/31 09:22:08;;;;;;;11.20;1.70;;;;;;;5.23;100.00;96982.28;5082870;28;20653;-71
2022/01/31 09:24:44;;;;;;;8.97;1.80;;;;;;;5.56;100.00;96983.88;5081449;28;20610;-71
2022/01/31 09:27:13;;;;;;;72.93;5.63;;;;;;;5.59;100.00;96970.13;5083971;28;20645;-71
2022/01/31 09:29:40;;;;;;;72.03;5.00;;;;;;;5.59;100.00;96964.81;5085262;28;20593;-72
2022/01/31 09:32:10;;;;;;;13.03;1.87;;;;;;;5.52;100.00;96961.59;5082543;28;20605;-73
2022/01/31 09:34:37;;;;;;;25.87;3.00;;;;;;;5.54;100.00;96962.94;5080610;28;20678;-71
2022/01/31 09:37:04;;;;;;;25.07;2.37;;;;;;;5.68;100.00;96961.47;5082735;28;20631;-72
2022/01/31 09:39:32;;;;;;;9.67;1.53;;;;;;;5.80;100.00;96974.50;5084832;28;20605;-72
2022/01/31 09:41:59;;;;;;;12.13;1.97;;;;;;;5.61;100.00;96968.81;5083362;28;20704;-71
2022/01/31 09:44:42;;;;;;;10.47;1.60;;;;;;;5.66;100.00;96970.72;5081345;28;20649;-72
2022/01/31 09:47:22;;;;;;;15.93;1.90;;;;;;;5.71;100.00;96973.38;5083307;28;20640;-74
2022/01/31 09:49:49;;;;;;;31.70;2.90;;;;;;;5.56;100.00;96968.78;5083134;28;20620;-72
2022/01/31 09:52:16;;;;;;;6.73;1.70;;;;;;;5.58;100.00;96964.03;5080955;28;20597;-71
2022/01/31 09:54:48;;;;;;;17.83;2.10;;;;;;;5.50;100.00;96976.94;5080952;28;20681;-72
2022/01/31 09:57:16;;;;;;;34.30;2.73;;;;;;;5.64;100.00;96978.09;5084004;28;20586;-74
2022/01/31 09:59:44;;;;;;;17.33;1.80;;;;;;;5.59;100.00;96986.00;5084372;28;20606;-71
2022/01/31 10:02:23;;;;;;;11.50;1.20;;;;;;;5.61;100.00;96976.75;5081575;28;20743;-72
2022/01/31 10:05:05;;;;;;;4.97;0.93;;;;;;;5.55;100.00;96979.63;5080913;28;20670;-71
2022/01/31 10:07:52;;;;;;;19.90;1.57;;;;;;;5.56;100.00;96981.22;5074748;28;20707;-71
2022/01/31 10:10:43;;;;;;;23.83;2.20;;;;;;;5.58;100.00;96995.00;5082332;28;20627;-72
2022/01/31 10:16:28;;;;;;;17.27;1.70;;;;;;;5.59;100.00;96983.38;5072404;28;20602;-71
2022/01/31 10:19:12;;;;;;;17.33;1.90;;;;;;;5.83;100.00;96987.25;5080579;28;20614;-74
2022/01/31 10:22:08;;;;;;;10.00;1.43;;;;;;;5.74;100.00;96988.78;5083400;28;20597;-72
2022/01/31 10:24:38;;;;;;;4.60;0.70;;;;;;;5.74;100.00;96989.56;5075141;28;20613;-71
2022/01/31 10:27:17;;;;;;;22.13;2.17;;;;;;;5.81;100.00;96974.28;5081444;28;20629;-71
2022/01/31 10:29:46;;;;;;;21.70;2.07;;;;;;;5.86;100.00;96981.47;5083019;28;20602;-71
2022/01/31 10:32:20;;;;;;;7.73;1.23;;;;;;;5.74;100.00;96975.53;5080051;28;20671;-71
2022/01/31 10:34:51;;;;;;;55.10;3.60;;;;;;;5.74;100.00;96967.59;5079231;28;20622;-71
2022/01/31 10:37:21;;;;;;;34.87;2.30;;;;;;;5.74;100.00;96971.03;5071522;28;20602;-71
2022/01/31 10:45:47;;;;;;;10.30;1.20;;;;;;;6.09;100.00;96969.69;5072848;28;20694;-71
2022/01/31 10:54:15;;;;;;;3.63;0.80;;;;;;;6.13;100.00;96960.94;5087158;28;20669;-71
2022/01/31 10:56:45;;;;;;;6.77;0.90;;;;;;;5.91;100.00;96962.97;5079759;28;20598;-71
2022/01/31 10:59:18;;;;;;;24.33;2.30;;;;;;;6.01;100.00;96962.19;5082671;28;20645;-73
2022/01/31 11:02:21;;;;;;;13.73;1.37;;;;;;;6.11;100.00;96963.06;5083242;28;20605;-72
2022/01/31 11:07:32;;;;;;;23.93;2.03;;;;;;;6.02;100.00;96958.50;5073257;28;20623;-71
2022/01/31 11:10:00;;;;;;;16.40;1.73;;;;;;;6.03;100.00;96963.56;5080469;28;20975;-71
2022/01/31 11:12:28;;;;;;;8.63;0.90;;;;;;;5.98;100.00;96958.22;5083033;28;20661;-72
2022/01/31 11:14:59;;;;;;;36.83;2.90;;;;;;;6.10;100.00;96955.38;5081715;28;20593;-71
2022/01/31 11:17:27;;;;;;;22.20;1.90;;;;;;;6.05;100.00;96958.78;5078093;28;20614;-71
2022/01/31 11:20:07;;;;;;;12.07;1.20;;;;;;;6.15;100.00;96950.91;5081035;28;20606;-71
2022/01/31 11:22:41;;;;;;;19.17;1.63;;;;;;;5.99;100.00;96959.81;5082670;28;20678;-72
2022/01/31 11:25:18;;;;;;;33.27;2.60;;;;;;;6.03;100.00;96950.31;5078801;28;20643;-71
2022/01/31 11:27:45;;;;;;;28.13;2.13;;;;;;;6.14;100.00;96944.00;5079380;28;20594;-71
2022/01/31 11:30:15;;;;;;;11.33;1.13;;;;;;;6.10;100.00;96950.88;5082612;28;20608;-71
2022/01/31 11:32:46;;;;;;;12.80;1.37;;;;;;;6.06;100.00;96951.66;5082404;28;20645;-71
2022/01/31 11:35:15;;;;;;;29.30;2.20;;;;;;;5.96;100.00;96917.94;5079778;28;20676;-71
2022/01/31 11:37:42;;;;;;;9.60;2.03;;;;;;;6.09;100.00;96933.38;5078223;28;20625;-71
2022/01/31 11:40:16;;;;;;;6.00;0.97;;;;;;;6.18;100.00;96931.84;5081282;28;20622;-71
2022/01/31 11:42:45;;;;;;;18.90;1.47;;;;;;;6.27;100.00;96932.94;5082479;28;20594;-72
2022/01/31 11:45:28;;;;;;;32.57;2.53;;;;;;;6.37;100.00;96934.81;5079624;28;20698;-73
2022/01/31 11:47:59;;;;;;;11.47;1.50;;;;;;;6.27;100.00;96917.03;5079184;28;20602;-71
2022/01/31 11:50:54;;;;;;;;;;;;;;;;;;;;;
2022/01/31 11:53:30;;;;;;;4.73;0.80;;;;;;;6.17;100.00;96903.72;5095321;28;20638;-72
2022/01/31 11:56:02;;;;;;;5.03;0.90;;;;;;;6.39;100.00;96907.00;5101535;28;20609;-72
2022/01/31 11:58:35;;;;;;;34.03;2.23;;;;;;;6.31;100.00;96898.75;5098705;28;20681;-71
2022/01/31 12:01:03;;;;;;;8.93;1.20;;;;;;;6.31;100.00;96888.91;5100111;28;20613;-71
2022/01/31 12:03:30;;;;;;;1.30;1.13;;;;;;;6.21;100.00;96888.91;5102801;28;20589;-71
2022/01/31 12:06:09;;;;;;;13.93;1.20;;;;;;;6.21;100.00;96899.50;5101488;28;21179;-71
2022/01/31 12:08:38;;;;;;;9.80;0.70;;;;;;;6.07;100.00;96895.72;5099056;28;21468;-72
2022/01/31 12:11:12;;;;;;;23.00;1.87;;;;;;;5.99;100.00;96888.28;5100316;28;20709;-71
2022/01/31 12:13:45;;;;;;;23.33;1.77;;;;;;;6.06;100.00;96890.69;5101893;28;20636;-72
2022/01/31 12:16:50;;;;;;;8.10;0.93;;;;;;;6.25;100.00;96897.91;5099335;28;20636;-71
2022/01/31 12:19:45;;;;;;;29.27;2.10;;;;;;;6.10;100.00;96897.06;5102065;28;20616;-72
2022/01/31 12:22:44;;;;;;;9.57;1.10;;;;;;;6.16;100.00;96891.50;5081500;28;20617;-71
2022/01/31 12:25:27;;;;;;;9.20;1.13;;;;;;;6.14;100.00;96890.97;5102264;28;20628;-71
2022/01/31 12:27:56;;;;;;;7.23;1.10;;;;;;;6.22;100.00;96882.53;5098754;28;20621;-72
2022/01/31 12:30:34;;;;;;;31.40;2.40;;;;;;;6.21;100.00;96873.00;5101999;28;20622;-71
2022/01/31 12:33:01;;;;;;;10.50;1.00;;;;;;;6.27;100.00;96877.25;5100563;28;20720;-71